Time;durP1;ratioP1;P1;durP2;ratioP2;P2;SDS_P1;SDS_P2;PMS_P1;PMS_P2;Temp;Humidity;BMP_temperature;BMP_pressure;BME280_temperature;BME280_humidity;BME280_pressure;Samples;Min_cycle;Max_cycle;Signal;HPM_P1;HPM_P2
2023/01/30 00:01:10;;;;;;;45.15;20.02;;;;;;;-0.29;100.00;99970.80;1693792;84;27348;-45
2023/01/30 00:03:37;;;;;;;46.02;21.07;;;;;;;-0.27;100.00;99978.00;1668207;86;25744;-43
2023/01/30 00:06:05;;;;;;;44.30;19.35;;;;;;;-0.27;100.00;99972.69;1693772;84;25580;-43
2023/01/30 00:08:32;;;;;;;41.37;19.45;;;;;;;-0.25;100.00;99975.10;1664087;86;25856;-44
2023/01/30 00:11:05;;;;;;;41.08;19.40;;;;;;;-0.25;100.00;99963.94;1693742;84;25459;-44
2023/01/30 00:13:33;;;;;;;41.48;18.32;;;;;;;-0.23;100.00;99961.03;1698212;84;28118;-46
2023/01/30 00:16:00;;;;;;;37.48;18.05;;;;;;;-0.22;100.00;99958.14;1693591;84;25641;-44
2023/01/30 00:18:28;;;;;;;38.17;19.73;;;;;;;-0.20;100.00;99961.88;1668593;86;25537;-43
2023/01/30 00:21:00;;;;;;;34.53;17.40;;;;;;;-0.20;100.00;99944.06;1693656;84;25703;-44
2023/01/30 00:23:31;;;;;;;39.83;18.10;;;;;;;-0.19;100.00;99943.53;1639987;86;25433;-45
2023/01/30 00:25:59;;;;;;;32.55;16.40;;;;;;;-0.18;100.00;99934.52;1693797;84;27420;-45
2023/01/30 00:28:26;;;;;;;40.75;18.32;;;;;;;-0.17;100.00;99925.50;1668636;86;25678;-45
2023/01/30 00:30:54;;;;;;;35.88;16.67;;;;;;;-0.17;100.00;99925.50;1693676;84;25571;-44
2023/01/30 00:33:25;;;;;;;27.60;13.32;;;;;;;-0.14;100.00;99917.55;1668831;86;25592;-47
2023/01/30 00:35:54;;;;;;;37.00;16.42;;;;;;;-0.13;100.00;99920.50;1693690;84;25465;-44
2023/01/30 00:38:23;;;;;;;33.15;17.12;;;;;;;-0.13;100.00;99913.31;1668230;86;28251;-45
2023/01/30 00:40:50;;;;;;;33.90;15.70;;;;;;;-0.11;100.00;99904.56;1693497;84;25410;-44
2023/01/30 00:49:06;;;;;;;31.68;14.50;;;;;;;-0.08;100.00;99875.36;1694271;84;25433;-45
2023/01/30 00:51:32;;;;;;;34.95;15.78;;;;;;;-0.07;100.00;99868.47;1694045;84;29506;-45
2023/01/30 00:53:59;;;;;;;31.33;15.90;;;;;;;-0.05;100.00;99863.70;1698604;83;25488;-45
2023/01/30 00:56:25;;;;;;;36.30;17.12;;;;;;;-0.05;100.00;99861.03;1717358;83;25632;-45
2023/01/30 00:58:52;;;;;;;32.53;15.88;;;;;;;-0.04;100.00;99861.83;1717339;83;26103;-45
2023/01/30 01:01:18;;;;;;;34.38;17.10;;;;;;;-0.03;100.00;99856.80;1717359;83;25386;-44
2023/01/30 01:03:45;;;;;;;34.88;14.73;;;;;;;-0.04;100.00;99841.35;1717354;83;27338;-47
2023/01/30 01:06:11;;;;;;;35.05;15.03;;;;;;;-0.03;100.00;99835.53;1717274;83;25720;-45
2023/01/30 01:08:37;;;;;;;28.52;14.45;;;;;;;-0.03;100.00;99835.00;1717355;83;25481;-45
2023/01/30 01:11:04;;;;;;;31.15;15.13;;;;;;;-0.03;100.00;99828.34;1716924;83;25550;-47
2023/01/30 01:13:31;;;;;;;32.15;15.20;;;;;;;-0.03;100.00;99821.70;1717379;83;25461;-44
2023/01/30 01:15:58;;;;;;;28.05;14.95;;;;;;;-0.02;100.00;99820.66;1717304;83;27335;-44
2023/01/30 01:18:25;;;;;;;32.28;15.53;;;;;;;-0.03;100.00;99817.71;1717226;83;25642;-44
2023/01/30 01:20:51;;;;;;;32.90;15.78;;;;;;;-0.03;100.00;99808.94;1680343;83;25541;-46
2023/01/30 01:23:17;;;;;;;37.67;16.48;;;;;;;-0.03;100.00;99800.97;1717268;83;25480;-45
2023/01/30 01:25:44;;;;;;;34.67;16.60;;;;;;;-0.04;100.00;99786.84;1717388;83;25453;-45
2023/01/30 01:28:10;;;;;;;29.70;14.05;;;;;;;-0.03;100.00;99772.51;1717344;83;27408;-44
2023/01/30 01:30:38;;;;;;;31.70;15.50;;;;;;;-0.04;100.00;99767.44;1717255;83;25630;-45
2023/01/30 01:33:04;;;;;;;30.45;14.18;;;;;;;-0.05;100.00;99758.67;1717345;83;25649;-44
2023/01/30 01:35:31;;;;;;;29.27;15.28;;;;;;;-0.05;100.00;99752.53;1717293;83;25751;-46
2023/01/30 01:37:58;;;;;;;32.75;15.20;;;;;;;-0.06;100.00;99747.75;1717299;83;25617;-45
2023/01/30 01:43:18;;;;;;;33.92;14.98;;;;;;;-0.07;100.00;99740.02;1717251;83;25643;-47
2023/01/30 01:45:49;;;;;;;32.50;15.08;;;;;;;-0.07;100.00;99730.20;1717377;83;25167;-44
2023/01/30 01:48:27;;;;;;;28.55;14.00;;;;;;;-0.07;100.00;99720.90;1717315;83;25567;-45
2023/01/30 01:50:58;;;;;;;30.65;13.65;;;;;;;-0.08;100.00;99716.63;1717483;83;25496;-44
2023/01/30 01:53:29;;;;;;;30.45;14.98;;;;;;;-0.06;100.00;99723.02;1717432;83;27358;-43
2023/01/30 01:55:59;;;;;;;28.83;14.43;;;;;;;-0.07;100.00;99703.62;1696855;83;25559;-44
2023/01/30 01:58:31;;;;;;;;;;;;;;;-0.05;100.00;99706.00;1696534;84;25642;-44
2023/01/30 02:01:00;;;;;;;25.45;12.37;;;;;;;-0.05;100.00;99700.68;1694064;83;25531;-45
2023/01/30 02:03:31;;;;;;;25.15;13.95;;;;;;;-0.06;100.00;99683.94;1694214;83;25646;-44
2023/01/30 02:06:02;;;;;;;22.70;13.05;;;;;;;-0.04;100.00;99692.98;1694134;84;27442;-43
2023/01/30 02:08:34;;;;;;;26.37;13.20;;;;;;;-0.05;100.00;99692.20;1693972;84;25578;-43
2023/01/30 02:11:15;;;;;;;26.73;13.00;;;;;;;-0.03;100.00;99684.77;1694132;84;25627;-44
2023/01/30 02:13:46;;;;;;;25.85;11.85;;;;;;;-0.03;100.00;99682.10;1694076;84;27586;-46
2023/01/30 02:16:13;;;;;;;20.57;10.38;;;;;;;-0.02;100.00;99674.41;1694196;83;25464;-46
2023/01/30 02:18:43;;;;;;;27.13;12.63;;;;;;;-0.01;100.00;99676.00;1666501;84;27351;-44
2023/01/30 02:21:57;;;;;;;23.92;12.13;;;;;;;-0.02;100.00;99675.74;1694096;83;25481;-44
2023/01/30 02:24:58;;;;;;;20.70;11.03;;;;;;;0.01;100.00;99668.31;1694247;84;25632;-43
2023/01/30 02:27:42;;;;;;;25.37;11.88;;;;;;;0.00;100.00;99662.20;1694326;84;25457;-43
2023/01/30 02:30:42;;;;;;;22.62;11.63;;;;;;;0.01;100.00;99654.47;1666805;84;25597;-46
2023/01/30 02:33:23;;;;;;;26.42;11.90;;;;;;;0.03;100.00;99654.22;1694419;84;27931;-43
2023/01/30 02:36:17;;;;;;;23.47;11.83;;;;;;;0.04;100.00;99642.54;1694037;84;25811;-47
2023/01/30 02:39:15;;;;;;;24.43;13.08;;;;;;;0.03;100.00;99637.73;1693542;84;25407;-43
2023/01/30 02:42:01;;;;;;;23.95;11.88;;;;;;;0.03;100.00;99632.95;1693225;84;25647;-44
2023/01/30 02:44:42;;;;;;;23.42;11.90;;;;;;;0.03;100.00;99625.77;1694100;84;25409;-47
2023/01/30 02:47:35;;;;;;;23.65;11.80;;;;;;;0.02;100.00;99624.18;1694344;84;27360;-45
2023/01/30 02:50:22;;;;;;;22.82;12.03;;;;;;;0.03;100.00;99619.66;1694272;83;25501;-47
2023/01/30 02:52:49;;;;;;;26.35;12.03;;;;;;;0.02;100.00;99616.71;1693361;84;25603;-44
2023/01/30 02:55:27;;;;;;;27.93;13.25;;;;;;;0.01;100.00;99610.59;1696149;84;25479;-43
2023/01/30 02:57:55;;;;;;;23.30;11.95;;;;;;;0.00;100.00;99616.99;1699713;84;25497;-46
2023/01/30 03:00:41;;;;;;;26.02;12.40;;;;;;;-0.01;100.00;99596.77;1699640;84;27932;-43
2023/01/30 03:03:43;;;;;;;21.48;12.40;;;;;;;-0.02;99.86;99600.47;1697496;84;25646;-43
2023/01/30 03:06:33;;;;;;;23.27;11.48;;;;;;;-0.04;99.21;99596.73;1669846;84;25625;-44
2023/01/30 03:09:25;;;;;;;23.02;11.00;;;;;;;-0.03;99.29;99596.23;1699689;84;25642;-46
2023/01/30 03:11:59;;;;;;;22.77;11.08;;;;;;;-0.03;99.08;99586.92;1664056;84;25538;-44
2023/01/30 03:14:31;;;;;;;23.87;11.45;;;;;;;-0.05;98.65;99580.52;1663275;85;27912;-45
2023/01/30 03:17:00;;;;;;;22.45;10.78;;;;;;;-0.05;98.71;99575.72;1662901;86;25364;-45
2023/01/30 03:19:30;;;;;;;24.47;11.10;;;;;;;-0.06;98.57;99573.59;1663658;86;25514;-44
2023/01/30 03:21:57;;;;;;;23.85;11.20;;;;;;;-0.06;98.23;99554.98;1663538;86;25780;-44
2023/01/30 03:24:24;;;;;;;25.12;10.48;;;;;;;-0.06;97.92;99554.19;1663528;86;25608;-44
2023/01/30 03:26:56;;;;;;;24.60;10.88;;;;;;;-0.05;98.15;99547.80;1663509;86;27524;-44
2023/01/30 03:29:22;;;;;;;25.20;12.15;;;;;;;-0.06;97.91;99536.37;1663536;86;25928;-44
2023/01/30 03:31:49;;;;;;;21.62;10.23;;;;;;;-0.06;97.69;99519.63;1663524;86;25623;-47
2023/01/30 03:34:15;;;;;;;22.55;11.00;;;;;;;-0.05;97.71;99521.21;1663475;86;25525;-43
2023/01/30 03:36:41;;;;;;;21.82;9.78;;;;;;;-0.06;97.62;99525.73;1663524;86;25722;-46
2023/01/30 03:39:08;;;;;;;25.72;11.70;;;;;;;-0.07;97.64;99492.25;1663481;86;27349;-47
2023/01/30 03:41:35;;;;;;;20.00;10.03;;;;;;;-0.06;97.73;99493.83;1663413;86;25671;-46
2023/01/30 03:44:01;;;;;;;22.62;10.05;;;;;;;-0.08;97.77;99495.16;1663514;86;25625;-44
2023/01/30 03:46:28;;;;;;;22.00;10.50;;;;;;;-0.08;97.86;99481.88;1663539;86;25429;-43
2023/01/30 03:48:54;;;;;;;17.30;8.85;;;;;;;-0.11;97.92;99477.86;1676592;84;25737;-47
2023/01/30 03:51:21;;;;;;;21.55;10.08;;;;;;;-0.12;97.99;99476.78;1699637;84;27678;-44
2023/01/30 03:53:47;;;;;;;17.62;9.88;;;;;;;-0.13;98.19;99478.64;1699530;84;25970;-45
2023/01/30 03:56:13;;;;;;;20.05;9.95;;;;;;;-0.15;98.25;99479.44;1699579;83;25446;-43
2023/01/30 03:58:40;;;;;;;24.02;11.55;;;;;;;-0.19;98.43;99465.05;1671597;84;26362;-48
2023/01/30 04:01:07;;;;;;;24.92;11.43;;;;;;;-0.20;98.56;99468.24;1699687;84;25644;-46
2023/01/30 04:03:33;;;;;;;22.55;11.38;;;;;;;-0.22;98.53;99468.25;1699682;84;27942;-45
2023/01/30 04:06:00;;;;;;;23.07;11.75;;;;;;;-0.25;98.86;99454.92;1699647;84;25607;-44
2023/01/30 04:08:26;;;;;;;19.98;10.28;;;;;;;-0.28;98.96;99450.12;1699645;84;25630;-44
2023/01/30 04:10:53;;;;;;;27.07;12.37;;;;;;;-0.31;98.97;99455.15;1699606;84;25517;-44
2023/01/30 04:13:19;;;;;;;25.95;11.93;;;;;;;-0.33;99.21;99451.42;1699694;84;25634;-44
2023/01/30 04:15:46;;;;;;;26.10;12.15;;;;;;;-0.34;99.18;99440.53;1699645;84;27535;-45
2023/01/30 04:18:12;;;;;;;31.15;12.88;;;;;;;-0.37;99.51;99421.11;1699517;84;25483;-44
2023/01/30 04:20:39;;;;;;;26.23;12.33;;;;;;;-0.40;99.65;99430.39;1699628;84;25663;-44
2023/01/30 04:23:05;;;;;;;26.80;10.80;;;;;;;-0.41;99.54;99418.17;1699650;83;25896;-45
2023/01/30 04:25:32;;;;;;;23.22;11.05;;;;;;;-0.42;99.38;99423.20;1699639;84;25562;-44
2023/01/30 04:27:59;;;;;;;27.30;11.45;;;;;;;-0.43;99.41;99426.12;1699660;84;27363;-45
2023/01/30 04:30:26;;;;;;;20.68;11.15;;;;;;;-0.45;99.45;99396.35;1699580;84;25415;-44
2023/01/30 04:32:52;;;;;;;23.22;11.10;;;;;;;-0.45;99.38;99404.33;1694844;84;25488;-45
2023/01/30 04:35:19;;;;;;;25.92;11.20;;;;;;;-0.46;99.26;99396.07;1669575;84;25502;-45
2023/01/30 04:37:45;;;;;;;19.48;9.73;;;;;;;-0.47;99.33;99392.63;1699584;83;25413;-43
2023/01/30 04:40:13;;;;;;;21.50;10.63;;;;;;;-0.48;99.11;99369.76;1699575;84;27276;-44
2023/01/30 04:42:39;;;;;;;18.87;9.10;;;;;;;-0.51;99.04;99363.66;1699511;82;25408;-44
2023/01/30 04:45:08;;;;;;;21.05;9.58;;;;;;;-0.50;99.21;99357.80;1699579;84;25433;-46
2023/01/30 04:47:34;;;;;;;23.15;10.95;;;;;;;-0.51;99.09;99349.55;1699689;84;32729;-43
2023/01/30 04:50:01;;;;;;;23.47;11.48;;;;;;;-0.51;99.21;99357.52;1699571;84;25650;-45
2023/01/30 04:52:27;;;;;;;22.05;10.93;;;;;;;-0.52;99.23;99346.64;1699606;84;27010;-43
2023/01/30 04:54:54;;;;;;;24.10;10.93;;;;;;;-0.54;99.19;99346.11;1698748;82;25674;-44
2023/01/30 04:57:20;;;;;;;21.95;10.25;;;;;;;-0.56;99.18;99333.08;1662420;86;25461;-43
2023/01/30 04:59:47;;;;;;;19.23;10.15;;;;;;;-0.57;99.13;99325.63;1662480;85;25611;-44
2023/01/30 05:02:13;;;;;;;19.80;9.60;;;;;;;-0.58;99.05;99321.89;1694525;84;25464;-47
2023/01/30 05:04:40;;;;;;;20.25;9.20;;;;;;;-0.57;98.78;99332.27;1694003;84;28072;-44
2023/01/30 05:07:06;;;;;;;21.10;9.55;;;;;;;-0.58;98.53;99329.35;1693953;84;25724;-44
2023/01/30 05:09:32;;;;;;;17.32;8.93;;;;;;;-0.57;98.50;99330.14;1694002;84;25414;-46
2023/01/30 05:11:59;;;;;;;26.37;9.53;;;;;;;-0.55;98.30;99322.70;1693982;84;26323;-44
2023/01/30 05:14:26;;;;;;;18.02;8.38;;;;;;;-0.56;98.17;99327.77;1694025;84;25172;-44
2023/01/30 05:16:52;;;;;;;20.37;9.25;;;;;;;-0.55;97.93;99320.59;1694008;84;27347;-43
2023/01/30 05:19:19;;;;;;;20.40;8.43;;;;;;;-0.54;97.83;99307.05;1693885;84;25856;-46
2023/01/30 05:21:46;;;;;;;19.90;8.40;;;;;;;-0.55;97.48;99316.06;1693994;84;25388;-45
2023/01/30 05:24:12;;;;;;;17.65;7.55;;;;;;;-0.53;97.45;99310.50;1694005;84;25666;-44
2023/01/30 05:26:38;;;;;;;20.77;9.48;;;;;;;-0.54;97.54;99300.41;1694048;84;25654;-46
2023/01/30 05:29:05;;;;;;;19.82;8.75;;;;;;;-0.54;97.15;99298.30;1694065;84;27457;-45
2023/01/30 05:31:34;;;;;;;16.23;8.38;;;;;;;-0.55;97.13;99282.07;1694002;84;25658;-44
2023/01/30 05:34:01;;;;;;;20.60;9.08;;;;;;;-0.56;97.06;99271.98;1694150;84;25645;-44
2023/01/30 05:36:27;;;;;;;18.73;8.38;;;;;;;-0.57;97.04;99259.21;1693993;84;26262;-43
2023/01/30 05:38:54;;;;;;;19.27;8.75;;;;;;;-0.56;97.06;99256.05;1693976;84;25385;-46
2023/01/30 05:41:20;;;;;;;17.02;7.62;;;;;;;-0.55;96.83;99247.54;1694012;84;27427;-44
2023/01/30 05:43:51;;;;;;;19.15;8.33;;;;;;;-0.55;96.59;99242.23;1693930;84;25622;-43
2023/01/30 05:46:18;;;;;;;15.08;7.80;;;;;;;-0.58;96.74;99239.55;1694024;84;25466;-46
2023/01/30 05:48:46;;;;;;;15.03;7.60;;;;;;;-0.58;96.69;99231.06;1693942;84;26330;-46
2023/01/30 05:51:22;;;;;;;20.02;7.47;;;;;;;-0.60;96.58;99235.82;1694039;84;25394;-47
2023/01/30 05:53:50;;;;;;;16.73;8.45;;;;;;;-0.60;96.32;99228.39;1694053;84;27330;-46
2023/01/30 05:56:19;;;;;;;16.45;8.20;;;;;;;-0.62;96.50;99231.30;1696254;84;25567;-45
2023/01/30 05:58:55;;;;;;;16.07;8.00;;;;;;;-0.60;96.49;99229.72;1699530;84;25505;-44
2023/01/30 06:01:23;;;;;;;17.77;8.63;;;;;;;-0.60;96.35;99225.73;1693561;84;25640;-46
2023/01/30 06:03:50;;;;;;;19.30;9.03;;;;;;;-0.61;96.40;99232.91;1699465;84;25291;-47
2023/01/30 06:06:18;;;;;;;16.62;8.58;;;;;;;-0.61;96.09;99228.14;1669952;85;27369;-43
2023/01/30 06:08:46;;;;;;;20.30;8.93;;;;;;;-0.59;96.00;99227.34;1699474;84;25577;-43
2023/01/30 06:11:15;;;;;;;16.55;8.03;;;;;;;-0.59;95.94;99217.50;1693580;84;25648;-43
2023/01/30 06:13:43;;;;;;;;;;;;;;;-0.58;95.91;99219.62;1701913;83;25698;-42
2023/01/30 06:16:12;;;;;;;18.42;9.63;;;;;;;-0.57;95.91;99220.70;1693670;84;25632;-43
2023/01/30 06:18:40;;;;;;;;;;;;;;;-0.57;95.72;99202.64;1702033;84;27956;-46
2023/01/30 06:21:08;;;;;;;18.37;8.10;;;;;;;-0.55;95.57;99190.42;1693484;84;27173;-45
2023/01/30 06:23:35;;;;;;;17.27;8.47;;;;;;;-0.57;95.39;99200.77;1699646;84;25647;-45
2023/01/30 06:26:01;;;;;;;17.10;8.68;;;;;;;-0.57;95.16;99176.86;1699372;84;25709;-44
2023/01/30 06:28:28;;;;;;;18.20;10.10;;;;;;;-0.55;95.37;99183.78;1692393;84;25751;-46
2023/01/30 06:30:56;;;;;;;16.93;8.20;;;;;;;-0.57;94.87;99166.23;1695768;84;27338;-45
2023/01/30 06:33:22;;;;;;;19.12;9.65;;;;;;;-0.55;94.80;99167.84;1669864;86;25463;-44
2023/01/30 06:35:51;;;;;;;19.32;9.05;;;;;;;-0.56;94.79;99152.45;1699516;84;25455;-45
2023/01/30 06:38:19;;;;;;;19.70;9.35;;;;;;;-0.57;94.73;99157.48;1699464;84;25630;-45
2023/01/30 06:40:50;;;;;;;18.20;8.63;;;;;;;-0.57;94.70;99161.47;1725250;82;25574;-45
2023/01/30 06:43:17;;;;;;;19.40;9.80;;;;;;;-0.56;94.85;99147.13;1725030;83;27411;-45
2023/01/30 06:45:44;;;;;;;14.38;7.83;;;;;;;-0.56;94.46;99149.79;1724863;83;25657;-45
2023/01/30 06:48:11;;;;;;;20.77;8.65;;;;;;;-0.57;94.36;99158.27;1724997;83;25571;-45
2023/01/30 06:50:38;;;;;;;21.65;9.63;;;;;;;-0.57;94.36;99167.56;1725016;83;25627;-45
2023/01/30 06:53:07;;;;;;;20.72;9.58;;;;;;;-0.58;93.98;99176.61;1725082;83;25471;-45
2023/01/30 06:55:35;;;;;;;20.00;9.50;;;;;;;-0.56;94.27;99153.78;1725196;83;26850;-48
2023/01/30 06:58:12;;;;;;;20.23;10.65;;;;;;;-0.57;94.20;99156.16;1724935;83;25561;-45
2023/01/30 07:00:42;;;;;;;18.62;9.03;;;;;;;-0.57;93.40;99130.38;1724822;83;25412;-44
2023/01/30 07:03:17;;;;;;;21.27;9.88;;;;;;;-0.56;93.84;99131.20;1724584;83;25669;-45
2023/01/30 07:05:47;;;;;;;18.45;8.93;;;;;;;-0.55;93.70;99128.79;1725082;83;25465;-47
2023/01/30 07:08:15;;;;;;;18.60;9.23;;;;;;;-0.55;93.61;99132.77;1725323;83;27394;-44
2023/01/30 07:10:43;;;;;;;18.35;8.95;;;;;;;-0.54;93.47;99134.38;1725095;83;25595;-44
2023/01/30 07:13:12;;;;;;;19.95;9.15;;;;;;;-0.54;93.39;99132.27;1725233;83;25542;-44
2023/01/30 07:15:38;;;;;;;21.68;9.38;;;;;;;-0.56;93.21;99132.53;1725177;83;25619;-47
2023/01/30 07:18:05;;;;;;;20.45;9.23;;;;;;;-0.53;92.96;99131.19;1725193;83;25638;-44
2023/01/30 07:20:33;;;;;;;21.62;9.33;;;;;;;-0.52;93.15;99116.31;1725179;83;28453;-44
2023/01/30 07:23:00;;;;;;;20.80;10.40;;;;;;;-0.51;92.26;99120.58;1725148;83;25935;-43
2023/01/30 07:25:30;;;;;;;20.48;9.73;;;;;;;-0.51;91.80;99107.80;1725275;83;25613;-44
2023/01/30 07:28:00;;;;;;;22.05;10.38;;;;;;;-0.50;92.19;99126.68;1725345;83;25611;-44
2023/01/30 07:30:31;;;;;;;17.32;9.08;;;;;;;-0.50;91.60;99101.44;1725274;83;25652;-44
2023/01/30 07:33:00;;;;;;;21.90;10.28;;;;;;;-0.50;91.91;99097.45;1725223;83;27436;-44
2023/01/30 07:35:31;;;;;;;23.38;9.95;;;;;;;-0.47;91.52;99104.91;1725260;83;25716;-44
2023/01/30 07:37:59;;;;;;;21.73;9.50;;;;;;;-0.48;91.22;99101.97;1725186;83;25412;-43
2023/01/30 07:40:27;;;;;;;20.08;9.73;;;;;;;-0.46;91.71;99103.31;1725116;83;25984;-45
2023/01/30 07:43:01;;;;;;;18.82;9.48;;;;;;;-0.46;91.68;99104.64;1725202;83;25496;-45
2023/01/30 07:45:45;;;;;;;20.30;9.48;;;;;;;-0.47;91.68;99090.30;1724894;83;27437;-46
2023/01/30 07:48:16;;;;;;;23.25;10.78;;;;;;;-0.50;92.23;99083.64;1725124;83;25468;-44
2023/01/30 07:50:44;;;;;;;20.08;10.30;;;;;;;-0.51;91.82;99083.90;1725173;83;25627;-46
2023/01/30 07:53:15;;;;;;;20.50;9.98;;;;;;;-0.55;92.17;99062.92;1725090;83;25614;-44
2023/01/30 07:55:43;;;;;;;21.20;10.55;;;;;;;-0.58;94.34;99058.92;1725157;83;25424;-44
2023/01/30 07:58:14;;;;;;;24.52;12.13;;;;;;;-0.61;93.11;99063.46;1677383;84;28227;-46
2023/01/30 08:00:43;;;;;;;23.98;11.50;;;;;;;-0.65;93.07;99045.11;1688567;85;25593;-45
2023/01/30 08:03:16;;;;;;;21.23;10.53;;;;;;;-0.68;93.03;99049.11;1696577;84;25676;-45
2023/01/30 08:05:46;;;;;;;24.57;11.95;;;;;;;-0.72;92.92;99048.03;1684655;85;25676;-46
2023/01/30 08:08:12;;;;;;;;;;;;;;;-0.76;93.19;99062.91;1687170;85;25485;-46
2023/01/30 08:10:38;;;;;;;23.10;10.43;;;;;;;-0.79;93.68;99052.81;1684660;85;27342;-45
2023/01/30 08:13:05;;;;;;;25.45;12.25;;;;;;;-0.81;93.88;99033.70;1684561;85;25556;-44
2023/01/30 08:15:32;;;;;;;28.17;11.93;;;;;;;-0.84;94.41;99052.80;1684700;85;25508;-44
2023/01/30 08:18:00;;;;;;;29.27;12.35;;;;;;;-0.87;94.96;99063.95;1684553;85;25646;-45
2023/01/30 08:20:28;;;;;;;28.23;13.08;;;;;;;-0.92;96.26;99037.39;1684679;85;25679;-44
2023/01/30 08:22:58;;;;;;;26.02;13.78;;;;;;;-0.94;95.75;99040.30;1684692;85;27946;-44
2023/01/30 08:25:25;;;;;;;25.50;12.90;;;;;;;-0.96;95.72;99031.81;1684694;83;25609;-45
2023/01/30 08:27:53;;;;;;;28.42;12.55;;;;;;;-1.01;96.26;99037.12;1684559;85;25549;-45
2023/01/30 08:30:21;;;;;;;27.55;13.00;;;;;;;-1.04;96.54;99028.34;1684645;85;25659;-44
2023/01/30 08:32:48;;;;;;;23.38;11.45;;;;;;;-1.05;96.84;99012.95;1684784;85;25402;-43
2023/01/30 08:35:14;;;;;;;30.40;12.90;;;;;;;-1.08;96.83;99015.34;1684626;85;27843;-46
2023/01/30 08:37:42;;;;;;;30.90;13.90;;;;;;;-1.10;96.73;99014.28;1684550;85;25554;-45
2023/01/30 08:40:11;;;;;;;39.30;14.98;;;;;;;-1.08;97.12;99021.98;1684626;85;25337;-44
2023/01/30 08:42:39;;;;;;;27.55;13.55;;;;;;;-1.09;97.01;99018.54;1684736;85;25664;-49
2023/01/30 08:45:08;;;;;;;29.67;15.28;;;;;;;-1.09;97.02;99009.76;1684682;85;25438;-45
2023/01/30 08:47:35;;;;;;;29.42;14.68;;;;;;;-1.10;97.60;99014.28;1684825;84;28055;-47
2023/01/30 08:50:04;;;;;;;35.50;16.20;;;;;;;-1.11;97.28;99012.67;1684515;85;25657;-45
2023/01/30 08:52:34;;;;;;;29.37;13.58;;;;;;;-1.11;97.70;99015.33;1684885;85;25431;-45
2023/01/30 08:55:00;;;;;;;34.15;15.35;;;;;;;-1.14;98.07;99013.22;1684633;85;26217;-47
2023/01/30 08:57:26;;;;;;;34.83;16.25;;;;;;;-1.17;97.91;99012.41;1688936;84;25463;-46
2023/01/30 08:59:53;;;;;;;31.87;15.13;;;;;;;-1.21;97.97;99013.98;1693612;84;27277;-43
2023/01/30 09:02:19;;;;;;;32.50;14.80;;;;;;;-1.22;98.04;99004.45;1693738;83;25702;-45
2023/01/30 09:04:45;;;;;;;36.75;17.37;;;;;;;-1.22;98.13;98992.50;1694050;84;25427;-46
2023/01/30 09:07:13;;;;;;;35.70;16.48;;;;;;;-1.22;98.26;98988.52;1694028;84;25619;-43
2023/01/30 09:09:40;;;;;;;33.38;15.55;;;;;;;-1.23;98.76;98989.03;1694085;83;25568;-44
2023/01/30 09:12:06;;;;;;;34.38;15.93;;;;;;;-1.24;98.43;98978.17;1694000;84;27475;-47
2023/01/30 09:14:35;;;;;;;39.00;16.20;;;;;;;-1.22;98.48;98971.28;1693942;84;25978;-42
2023/01/30 09:17:03;;;;;;;32.97;14.97;;;;;;;-1.22;98.96;98965.97;1694264;84;25594;-44
2023/01/30 09:19:31;;;;;;;32.70;15.85;;;;;;;-1.22;99.22;98982.67;1693983;84;27205;-43
2023/01/30 09:21:57;;;;;;;32.23;15.15;;;;;;;-1.24;99.18;98970.72;1694382;84;25612;-43
2023/01/30 09:24:26;;;;;;;32.17;14.80;;;;;;;-1.26;99.21;98964.89;1694117;83;27316;-44
2023/01/30 09:26:58;;;;;;;33.90;15.80;;;;;;;-1.23;98.89;98940.48;1694190;84;25714;-47
2023/01/30 09:29:26;;;;;;;32.28;16.67;;;;;;;-1.21;99.09;98940.50;1694193;84;25452;-44
2023/01/30 09:31:56;;;;;;;27.22;13.03;;;;;;;-1.19;99.22;98943.69;1694181;84;25626;-42
2023/01/30 09:34:28;;;;;;;33.18;16.27;;;;;;;-1.18;99.14;98955.09;1694339;84;25626;-44
2023/01/30 09:37:02;;;;;;;35.80;15.85;;;;;;;-1.17;99.16;98926.96;1694061;84;28194;-46
2023/01/30 09:39:33;;;;;;;34.58;15.38;;;;;;;-1.17;99.32;98936.78;1694006;84;25583;-45
2023/01/30 09:42:30;;;;;;;;;;;;;;;-1.17;99.52;98930.16;1696645;83;25417;-45
2023/01/30 09:45:13;;;;;;;36.45;16.17;;;;;;;-1.18;100.00;98924.56;1694224;83;25736;-46
2023/01/30 09:48:32;;;;;;;30.65;14.55;;;;;;;-1.20;99.86;98926.16;1694253;83;25402;-46
2023/01/30 09:51:23;;;;;;;36.13;16.15;;;;;;;-1.19;99.72;98910.52;1694048;84;27011;-49
2023/01/30 09:54:20;;;;;;;34.33;15.28;;;;;;;-1.18;99.93;98922.70;1693137;84;25545;-44
2023/01/30 09:57:16;;;;;;;34.63;15.28;;;;;;;-1.18;100.00;98901.47;1650029;86;25526;-45
2023/01/30 10:00:26;;;;;;;34.10;16.20;;;;;;;-1.20;100.00;98907.58;1608970;88;25759;-43
2023/01/30 10:02:58;;;;;;;33.02;14.98;;;;;;;-1.20;100.00;98886.36;1606038;88;25270;-44
2023/01/30 10:05:32;;;;;;;31.50;14.47;;;;;;;-1.17;100.00;98889.81;1601837;88;27760;-45
2023/01/30 10:08:43;;;;;;;34.63;15.75;;;;;;;-1.14;100.00;98878.67;1592770;89;27776;-47
2023/01/30 10:11:39;;;;;;;36.28;15.65;;;;;;;-1.11;100.00;98870.69;1593048;90;25466;-44
2023/01/30 10:14:39;;;;;;;34.48;16.82;;;;;;;-1.09;100.00;98875.73;1592864;90;25642;-44
2023/01/30 10:17:30;;;;;;;37.08;15.48;;;;;;;-1.07;100.00;98855.03;1553599;92;25857;-45
2023/01/30 10:20:05;;;;;;;32.85;16.15;;;;;;;-1.08;100.00;98855.57;1553415;92;27684;-46
2023/01/30 10:22:49;;;;;;;35.95;17.05;;;;;;;-1.07;100.00;98847.06;1528424;93;25490;-44
2023/01/30 10:25:34;;;;;;;32.93;15.60;;;;;;;-1.06;100.00;98852.11;1553430;92;25654;-46
2023/01/30 10:28:35;;;;;;;32.70;15.45;;;;;;;-1.07;100.00;98844.41;1528429;93;25549;-45
2023/01/30 10:31:13;;;;;;;35.63;15.25;;;;;;;-1.06;100.00;98837.52;1543558;93;25671;-44
2023/01/30 10:34:03;;;;;;;34.92;14.23;;;;;;;-1.05;100.00;98840.44;1519423;94;27464;-44
2023/01/30 10:37:10;;;;;;;34.73;14.55;;;;;;;-1.04;100.00;98822.14;1520084;94;25825;-45
2023/01/30 10:40:21;;;;;;;32.85;14.63;;;;;;;-1.01;100.00;98824.78;1572936;89;25727;-44
2023/01/30 10:43:02;;;;;;;29.18;13.35;;;;;;;-0.98;100.00;98829.55;1596419;89;25692;-45
2023/01/30 10:46:03;;;;;;;34.18;15.10;;;;;;;-0.97;100.00;98829.29;1596723;89;25671;-44
2023/01/30 10:48:53;;;;;;;29.57;14.13;;;;;;;-0.99;100.00;98822.13;1525912;94;27802;-44
2023/01/30 10:51:50;;;;;;;30.57;14.60;;;;;;;-0.96;100.00;98810.16;1525955;94;25700;-44
2023/01/30 10:54:49;;;;;;;29.15;14.73;;;;;;;-0.96;100.00;98806.97;1541528;92;25740;-45
2023/01/30 10:57:50;;;;;;;33.02;15.28;;;;;;;-0.95;100.00;98812.55;1533617;93;25630;-45
2023/01/30 11:00:29;;;;;;;29.23;14.63;;;;;;;-0.92;100.00;98804.57;1533975;93;25664;-45
2023/01/30 11:03:26;;;;;;;38.05;13.95;;;;;;;-0.92;100.00;98805.89;1534160;93;27712;-45
2023/01/30 11:06:00;;;;;;;33.40;14.73;;;;;;;-0.90;100.00;98793.17;1556247;91;25840;-44
2023/01/30 11:08:32;;;;;;;29.90;14.50;;;;;;;-0.87;100.00;98798.46;1563023;91;25548;-45
2023/01/30 11:11:40;;;;;;;31.48;14.80;;;;;;;-0.85;100.00;98795.81;1532942;93;25684;-43
2023/01/30 11:14:10;;;;;;;32.15;14.83;;;;;;;-0.84;100.00;98789.97;1538546;93;25704;-44
2023/01/30 11:16:51;;;;;;;27.22;13.70;;;;;;;-0.81;100.00;98794.73;1538546;93;27551;-44
2023/01/30 11:19:25;;;;;;;30.60;13.88;;;;;;;-0.81;100.00;98780.13;1538496;93;25543;-44
2023/01/30 11:21:56;;;;;;;26.00;14.28;;;;;;;-0.81;100.00;98771.63;1538487;93;25772;-45
2023/01/30 11:24:30;;;;;;;31.48;14.63;;;;;;;-0.79;100.00;98765.51;1538397;93;25617;-43
2023/01/30 11:27:24;;;;;;;27.25;14.13;;;;;;;-0.80;100.00;98762.61;1607375;88;25652;-46
2023/01/30 11:30:18;;;;;;;28.35;13.30;;;;;;;-0.79;100.00;98785.97;1644922;87;27347;-44
2023/01/30 11:32:51;;;;;;;30.27;13.62;;;;;;;-0.74;100.00;98759.39;1644909;87;25696;-43
2023/01/30 11:35:25;;;;;;;25.88;13.50;;;;;;;-0.72;100.00;98767.09;1655135;85;25625;-43
2023/01/30 11:37:57;;;;;;;29.92;14.23;;;;;;;-0.71;100.00;98772.67;1686865;84;25686;-44
2023/01/30 11:40:30;;;;;;;23.50;13.53;;;;;;;-0.69;100.00;98747.42;1686305;84;25656;-42
2023/01/30 11:43:11;;;;;;;25.40;12.58;;;;;;;-0.65;100.00;98751.66;1665071;84;27301;-44
2023/01/30 11:45:45;;;;;;;26.35;12.33;;;;;;;-0.62;100.00;98751.91;1688293;85;25622;-43
2023/01/30 11:48:18;;;;;;;27.00;12.93;;;;;;;-0.57;100.00;98739.92;1686505;85;25627;-44
2023/01/30 11:50:50;;;;;;;24.63;12.85;;;;;;;-0.54;100.00;98743.91;1688644;84;25555;-44